createdAt,value
2022-10-04T03:02:40.018Z,4.33
2022-10-04T03:05:09.795Z,5.23
2022-10-04T03:07:38.105Z,4.70
2022-10-04T03:10:08.760Z,5.10
2022-10-04T03:12:38.920Z,4.80
2022-10-04T03:15:07.984Z,5.20
2022-10-04T03:17:35.476Z,5.00
2022-10-04T03:20:05.489Z,5.17
2022-10-04T03:22:33.006Z,5.00
2022-10-04T03:25:00.480Z,5.10
2022-10-04T03:27:31.651Z,5.30
2022-10-04T03:29:59.548Z,5.13
2022-10-04T03:32:30.661Z,4.90
2022-10-04T03:34:59.846Z,4.97
2022-10-04T03:37:30.698Z,5.17
2022-10-04T03:39:58.781Z,4.93
2022-10-04T03:42:28.587Z,4.73
2022-10-04T03:44:59.818Z,5.10
2022-10-04T03:47:30.205Z,4.90
2022-10-04T03:50:03.441Z,4.77
2022-10-04T03:52:34.977Z,4.90
2022-10-04T03:55:04.903Z,4.73
2022-10-04T03:57:32.885Z,4.10
2022-10-04T04:00:01.129Z,4.60
2022-10-04T04:02:34.070Z,4.60
2022-10-04T04:05:10.233Z,4.90
2022-10-04T04:07:43.783Z,5.03
2022-10-04T04:10:21.035Z,4.60
2022-10-04T04:12:55.180Z,4.77
2022-10-04T04:15:22.642Z,4.63
2022-10-04T04:17:53.377Z,4.73
2022-10-04T04:20:24.786Z,4.20
2022-10-04T04:23:00.230Z,4.50
2022-10-04T04:25:28.982Z,4.77
2022-10-04T04:28:03.084Z,4.87
2022-10-04T04:30:31.878Z,4.87
2022-10-04T04:33:05.532Z,6.10
2022-10-04T04:35:36.490Z,5.60
2022-10-04T04:38:19.377Z,5.27
2022-10-04T04:40:46.539Z,4.97
2022-10-04T04:43:19.085Z,4.67
2022-10-04T04:46:02.833Z,5.37
2022-10-04T04:48:37.123Z,4.47
2022-10-04T04:51:05.325Z,5.20
2022-10-04T04:53:33.783Z,4.97
2022-10-04T04:56:04.913Z,5.43
2022-10-04T04:58:35.842Z,5.67
2022-10-04T05:01:05.798Z,5.60
2022-10-04T05:03:34.264Z,5.63
2022-10-04T05:06:04.860Z,6.10
2022-10-04T05:08:41.021Z,5.80
2022-10-04T05:11:13.466Z,6.03
2022-10-04T05:13:44.219Z,6.27
2022-10-04T05:16:16.387Z,6.80
2022-10-04T05:18:43.647Z,6.73
2022-10-04T05:21:18.450Z,6.47
2022-10-04T05:23:47.360Z,6.60
2022-10-04T05:26:14.908Z,5.97
2022-10-04T05:28:42.006Z,6.07
2022-10-04T05:31:32.366Z,6.10
2022-10-04T05:33:59.634Z,6.23
2022-10-04T05:36:53.885Z,5.67
2022-10-04T05:39:29.363Z,6.30
2022-10-04T05:42:07.784Z,6.10
2022-10-04T05:44:37.824Z,6.40
2022-10-04T05:47:07.853Z,6.10
2022-10-04T05:49:43.909Z,8.23
2022-10-04T05:52:16.412Z,8.60
2022-10-04T05:54:44.770Z,7.67
2022-10-04T05:57:28.475Z,6.47
2022-10-04T06:00:11.165Z,7.13
2022-10-04T06:03:01.928Z,7.10
2022-10-04T06:05:38.408Z,7.37
2022-10-04T06:08:13.300Z,7.27
2022-10-04T06:11:04.179Z,6.87
2022-10-04T06:14:05.825Z,7.73
2022-10-04T06:16:47.370Z,6.77
2022-10-04T06:19:44.711Z,7.27
2022-10-04T06:22:16.866Z,7.30
2022-10-04T06:24:48.058Z,6.57
2022-10-04T06:27:21.657Z,7.00
2022-10-04T06:29:53.453Z,7.70
2022-10-04T06:32:51.059Z,8.00
2022-10-04T06:35:44.663Z,8.27
2022-10-04T06:38:39.111Z,7.00
2022-10-04T06:41:32.685Z,6.67
2022-10-04T06:44:28.825Z,7.53
2022-10-04T06:47:09.102Z,6.60
2022-10-04T06:49:45.373Z,6.90
2022-10-04T06:52:34.316Z,7.33
2022-10-04T06:55:37.167Z,7.33
2022-10-04T06:58:33.138Z,7.43
2022-10-04T07:01:05.476Z,7.07
2022-10-04T07:03:39.691Z,7.70
2022-10-04T07:06:10.459Z,7.20
2022-10-04T07:08:41.704Z,6.40
2022-10-04T07:11:16.793Z,6.37
2022-10-04T07:13:50.233Z,6.80
2022-10-04T07:16:30.970Z,7.47
2022-10-04T07:19:08.385Z,5.57
2022-10-04T07:21:40.771Z,5.07
2022-10-04T07:24:12.270Z,4.83
2022-10-04T07:26:45.881Z,4.87
2022-10-04T07:29:26.083Z,4.67
2022-10-04T07:32:11.963Z,4.93
2022-10-04T07:34:45.556Z,5.50
2022-10-04T07:37:14.266Z,4.97
2022-10-04T07:39:47.725Z,5.50
2022-10-04T07:42:25.440Z,5.33
2022-10-04T07:45:08.595Z,4.80
2022-10-04T07:47:36.986Z,5.37
2022-10-04T07:50:20.963Z,5.30
2022-10-04T07:53:04.886Z,5.63
2022-10-04T07:55:46.495Z,5.43
2022-10-04T07:58:26.888Z,5.67
2022-10-04T08:01:00.041Z,5.17
2022-10-04T08:03:45.283Z,5.20
2022-10-04T08:06:17.103Z,5.50
2022-10-04T08:09:04.744Z,5.23
2022-10-04T08:11:43.430Z,5.60
2022-10-04T08:14:23.584Z,5.47
2022-10-04T08:17:02.187Z,5.27
2022-10-04T08:19:43.791Z,5.20
2022-10-04T08:22:23.570Z,6.20
2022-10-04T08:25:02.902Z,6.40
2022-10-04T08:27:41.369Z,6.50
2022-10-04T08:30:14.898Z,6.50
2022-10-04T08:32:52.526Z,6.20
2022-10-04T08:35:33.367Z,6.30
2022-10-04T08:38:25.693Z,6.10
2022-10-04T08:41:24.577Z,5.80
2022-10-04T08:44:23.191Z,5.10
2022-10-04T08:47:25.020Z,5.03
2022-10-04T08:50:31.895Z,4.90
2022-10-04T08:53:35.431Z,4.90
2022-10-04T08:56:13.714Z,4.90
2022-10-04T08:59:12.358Z,4.63
2022-10-04T09:01:51.860Z,4.17
2022-10-04T09:04:53.744Z,4.37
2022-10-04T09:08:04.337Z,4.30
2022-10-04T09:10:39.244Z,4.17
2022-10-04T09:13:32.704Z,3.97
2022-10-04T09:16:16.713Z,4.47
2022-10-04T09:19:00.445Z,4.03
2022-10-04T09:21:42.524Z,4.27
2022-10-04T09:24:39.751Z,4.10
2022-10-04T09:27:53.116Z,4.20
2022-10-04T09:30:17.262Z,3.73
2022-10-04T09:33:20.653Z,3.80
2022-10-04T09:36:03.381Z,3.30
2022-10-04T09:39:29.512Z,3.73
2022-10-04T09:42:21.499Z,3.30
2022-10-04T09:45:21.448Z,3.70
2022-10-04T09:48:07.887Z,3.60
2022-10-04T09:50:47.661Z,3.20
2022-10-04T09:53:35.320Z,3.37
2022-10-04T09:56:19.117Z,3.60
2022-10-04T09:59:08.808Z,3.80
2022-10-04T10:01:41.465Z,3.40
2022-10-04T10:04:33.013Z,3.60
2022-10-04T10:07:30.627Z,3.10
2022-10-04T10:10:25.699Z,2.77
2022-10-04T10:13:40.023Z,3.60
2022-10-04T10:16:21.136Z,2.80
2022-10-04T10:19:02.969Z,2.70
2022-10-04T10:21:39.689Z,3.10
2022-10-04T10:24:36.409Z,2.67
2022-10-04T10:27:19.705Z,2.70
2022-10-04T10:30:04.123Z,2.80
2022-10-04T10:33:05.219Z,2.80
2022-10-04T10:35:50.383Z,2.80
2022-10-04T10:38:40.186Z,2.77
2022-10-04T10:41:26.305Z,2.67
2022-10-04T10:44:19.865Z,2.70
2022-10-04T10:46:58.538Z,2.40
2022-10-04T10:49:48.843Z,2.50
2022-10-04T10:53:09.833Z,2.43
2022-10-04T10:56:10.355Z,2.60
2022-10-04T10:59:07.765Z,2.40
2022-10-04T11:02:19.836Z,2.30
2022-10-04T11:04:56.259Z,2.37
2022-10-04T11:07:51.782Z,2.30
2022-10-04T11:10:56.134Z,2.50
2022-10-04T11:13:57.825Z,2.30
2022-10-04T11:17:09.674Z,2.40
2022-10-04T11:20:11.388Z,2.37
2022-10-04T11:23:32.119Z,2.00
2022-10-04T11:26:35.927Z,2.10
2022-10-04T11:29:14.408Z,1.87
2022-10-04T11:32:24.027Z,2.50
2022-10-04T11:35:31.082Z,2.53
2022-10-04T11:38:09.283Z,2.40
2022-10-04T11:40:51.750Z,2.13
2022-10-04T11:44:00.520Z,2.30
2022-10-04T11:46:36.102Z,2.20
2022-10-04T11:49:21.201Z,2.50
2022-10-04T11:52:25.775Z,2.40
2022-10-04T11:55:34.219Z,1.97
2022-10-04T11:58:13.371Z,2.50
2022-10-04T12:01:19.670Z,2.70
2022-10-04T12:04:16.306Z,2.23
2022-10-04T12:06:57.765Z,2.20
2022-10-04T12:09:34.101Z,2.10
2022-10-04T12:12:38.894Z,2.87
2022-10-04T12:15:42.671Z,2.57
2022-10-04T12:18:52.274Z,2.60
2022-10-04T12:21:40.190Z,2.60
2022-10-04T12:24:27.861Z,2.13
2022-10-04T12:27:21.835Z,2.40
2022-10-04T12:30:21.970Z,1.83
2022-10-04T12:33:03.630Z,2.47
2022-10-04T12:35:42.211Z,2.40
2022-10-04T12:38:22.136Z,2.40
2022-10-04T12:40:55.192Z,2.10
2022-10-04T12:43:31.568Z,2.70
2022-10-04T12:46:12.017Z,2.40
2022-10-04T12:48:53.916Z,2.03
2022-10-04T12:51:37.839Z,2.03
2022-10-04T12:54:18.681Z,2.23
2022-10-04T12:56:50.404Z,2.17
2022-10-04T12:59:41.104Z,2.50
2022-10-04T13:02:26.052Z,2.40
2022-10-04T13:04:58.446Z,2.47
2022-10-04T13:07:41.941Z,2.80
2022-10-04T13:10:25.701Z,2.47
2022-10-04T13:13:33.540Z,2.90
2022-10-04T13:19:10.369Z,3.00
2022-10-04T13:22:12.907Z,2.77
2022-10-04T13:24:55.327Z,2.20
2022-10-04T13:27:30.989Z,2.40
2022-10-04T13:30:04.482Z,2.70
2022-10-04T13:32:40.364Z,2.60
2022-10-04T13:35:20.740Z,2.40
2022-10-04T13:38:05.139Z,2.30
2022-10-04T13:40:49.641Z,2.50
2022-10-04T13:43:50.989Z,2.43
2022-10-04T13:46:27.964Z,2.10
2022-10-04T13:49:07.476Z,2.20
2022-10-04T13:52:16.828Z,2.17
2022-10-04T13:55:10.775Z,2.20
2022-10-04T13:57:45.503Z,2.13
2022-10-04T14:00:18.673Z,2.10
2022-10-04T14:03:23.563Z,1.83
2022-10-04T14:06:26.353Z,2.00
2022-10-04T14:09:26.806Z,1.90
2022-10-04T14:12:16.216Z,2.43
2022-10-04T14:15:10.220Z,2.10
2022-10-04T14:18:01.193Z,2.10
2022-10-04T14:21:19.564Z,2.00
2022-10-04T14:24:21.426Z,1.97
2022-10-04T14:27:21.341Z,2.03
2022-10-04T14:30:08.231Z,2.10
2022-10-04T14:33:09.855Z,2.10
2022-10-04T14:35:45.142Z,2.00
2022-10-04T14:38:52.565Z,2.00
2022-10-04T14:42:04.221Z,2.23
2022-10-04T14:44:56.335Z,2.00
2022-10-04T14:48:02.347Z,2.10
2022-10-04T14:50:41.300Z,2.20
2022-10-04T14:53:20.599Z,2.03
2022-10-04T14:56:07.969Z,2.10
2022-10-04T14:58:49.036Z,1.97
2022-10-04T15:01:21.690Z,2.00
2022-10-04T15:04:27.919Z,2.00
2022-10-04T15:06:58.288Z,1.90
2022-10-04T15:09:52.036Z,2.50
2022-10-04T15:13:09.866Z,2.10
2022-10-04T15:15:38.269Z,2.10
2022-10-04T15:18:28.150Z,2.10
2022-10-04T15:20:58.929Z,2.20
2022-10-04T15:23:37.926Z,2.17
2022-10-04T15:26:36.737Z,1.90
2022-10-04T15:29:12.299Z,2.00
2022-10-04T15:31:54.335Z,2.10
2022-10-04T15:34:35.257Z,2.10
2022-10-04T15:37:09.908Z,2.00
2022-10-04T15:40:06.055Z,2.03
2022-10-04T15:42:34.790Z,1.87
2022-10-04T15:45:22.184Z,2.20
2022-10-04T15:48:01.741Z,2.17
2022-10-04T15:50:34.026Z,1.90
2022-10-04T15:53:20.479Z,2.37
2022-10-04T15:56:16.019Z,2.10
2022-10-04T15:59:22.033Z,2.10
2022-10-04T16:02:04.856Z,2.10
2022-10-04T16:04:43.868Z,2.40
2022-10-04T16:07:41.973Z,2.10
2022-10-04T16:10:19.500Z,2.00
2022-10-04T16:13:19.750Z,2.13
2022-10-04T16:15:49.661Z,2.00
2022-10-04T16:18:36.825Z,1.60
2022-10-04T16:21:12.812Z,2.00
2022-10-04T16:23:43.105Z,2.10
2022-10-04T16:26:12.296Z,1.93
2022-10-04T16:29:14.721Z,2.00
2022-10-04T16:31:50.686Z,2.40
2022-10-04T16:34:41.734Z,2.07
2022-10-04T16:37:33.189Z,2.00
2022-10-04T16:40:15.773Z,2.23
2022-10-04T16:42:53.313Z,2.50
2022-10-04T16:45:43.050Z,2.23
2022-10-04T16:48:40.208Z,2.20
2022-10-04T16:51:37.675Z,2.07
2022-10-04T16:54:16.800Z,2.57
2022-10-04T16:57:15.193Z,2.43
2022-10-04T16:59:49.054Z,2.30
2022-10-04T17:02:40.972Z,2.60
2022-10-04T17:05:32.347Z,2.37
2022-10-04T17:08:21.507Z,2.60
2022-10-04T17:11:37.865Z,2.80
2022-10-04T17:14:39.707Z,2.60
2022-10-04T17:17:17.407Z,2.40
2022-10-04T17:19:52.503Z,2.90
2022-10-04T17:22:28.832Z,5.53
2022-10-04T17:25:03.432Z,5.20
2022-10-04T17:27:46.460Z,4.87
2022-10-04T17:30:21.893Z,5.73
2022-10-04T17:33:07.603Z,5.50
2022-10-04T17:35:57.505Z,5.80
2022-10-04T17:38:31.762Z,5.43
2022-10-04T17:41:10.875Z,5.33
2022-10-04T17:43:46.212Z,5.43
2022-10-04T17:46:22.077Z,6.30
2022-10-04T17:49:15.239Z,5.67
2022-10-04T17:52:06.045Z,6.77
2022-10-04T17:54:59.531Z,5.97
2022-10-04T17:57:31.017Z,6.03
2022-10-04T18:00:09.149Z,5.87
2022-10-04T18:03:00.474Z,7.23
2022-10-04T18:05:31.136Z,6.50
2022-10-04T18:08:01.826Z,6.53
2022-10-04T18:10:33.290Z,6.60
2022-10-04T18:13:06.091Z,5.43
2022-10-04T18:15:38.636Z,6.13
2022-10-04T18:18:18.880Z,5.83
2022-10-04T18:21:02.201Z,5.60
2022-10-04T18:23:31.261Z,5.50
2022-10-04T18:26:01.067Z,5.60
2022-10-04T18:28:28.309Z,5.17
2022-10-04T18:31:00.138Z,5.13
2022-10-04T18:33:49.858Z,5.00
2022-10-04T18:36:18.827Z,4.80
2022-10-04T18:38:58.004Z,4.20
2022-10-04T18:41:45.198Z,4.67
2022-10-04T18:44:16.021Z,3.80
2022-10-04T18:46:48.241Z,4.13
2022-10-04T18:49:21.193Z,3.37
2022-10-04T18:52:00.842Z,3.90
2022-10-04T18:54:36.055Z,3.67
2022-10-04T18:57:19.210Z,3.50
2022-10-04T19:00:15.883Z,3.23
2022-10-04T19:02:53.893Z,3.13
2022-10-04T19:05:31.598Z,2.90
2022-10-04T19:08:05.603Z,3.33
2022-10-04T19:10:35.632Z,2.97
2022-10-04T19:13:17.303Z,3.70
2022-10-04T19:16:11.571Z,3.37
2022-10-04T19:18:56.219Z,3.63
2022-10-04T19:21:30.929Z,3.07
2022-10-04T19:24:16.999Z,3.40
2022-10-04T19:26:47.657Z,3.50
2022-10-04T19:29:26.276Z,3.50
2022-10-04T19:31:58.732Z,3.27
2022-10-04T19:34:39.405Z,3.60
2022-10-04T19:37:13.878Z,4.43
2022-10-04T19:39:54.201Z,3.33
2022-10-04T19:42:28.482Z,3.83
2022-10-04T19:45:04.978Z,4.83
2022-10-04T19:47:42.307Z,4.40
2022-10-04T19:50:21.261Z,6.80
2022-10-04T19:52:55.515Z,8.93
2022-10-04T19:55:29.021Z,8.73
2022-10-04T19:58:08.474Z,7.10
2022-10-04T20:00:35.947Z,5.50
2022-10-04T20:03:10.047Z,6.30
2022-10-04T20:05:43.362Z,5.73
2022-10-04T20:08:14.183Z,3.50
2022-10-04T20:10:43.147Z,5.30
2022-10-04T20:13:28.117Z,3.60
2022-10-04T20:15:56.392Z,3.20
2022-10-04T20:18:56.363Z,3.30
2022-10-04T20:21:29.580Z,3.97
2022-10-04T20:23:58.891Z,3.80
2022-10-04T20:26:54.229Z,4.30
2022-10-04T20:30:04.619Z,3.87
2022-10-04T20:32:54.575Z,3.83
2022-10-04T20:36:01.064Z,3.90
2022-10-04T20:38:48.222Z,4.30
2022-10-04T20:42:02.702Z,3.90
2022-10-04T20:44:45.387Z,3.80
2022-10-04T20:47:24.202Z,4.03
2022-10-04T20:49:53.090Z,5.10
2022-10-04T20:52:22.812Z,4.27
2022-10-04T20:54:52.292Z,3.00
2022-10-04T20:57:23.945Z,3.57
2022-10-04T20:59:55.403Z,8.10
2022-10-04T21:02:24.098Z,18.70
2022-10-04T21:04:54.120Z,12.47
2022-10-04T21:07:23.417Z,5.73
2022-10-04T21:09:53.096Z,4.93
2022-10-04T21:12:36.965Z,3.57
2022-10-04T21:15:07.636Z,2.97
2022-10-04T21:17:36.622Z,3.50
2022-10-04T21:20:05.359Z,3.40
2022-10-04T21:22:36.686Z,3.30
2022-10-04T21:25:20.889Z,3.80
2022-10-04T21:27:49.150Z,3.80
2022-10-04T21:30:19.572Z,4.57
2022-10-04T21:32:46.860Z,3.87
2022-10-04T21:35:13.973Z,3.73
2022-10-04T21:37:40.928Z,3.60
2022-10-04T21:40:09.129Z,3.50
2022-10-04T21:42:36.024Z,3.80
2022-10-04T21:45:04.943Z,3.80
2022-10-04T21:47:31.937Z,4.13
2022-10-04T21:49:58.830Z,4.07
2022-10-04T21:52:25.704Z,4.00
2022-10-04T21:54:52.616Z,4.83
2022-10-04T21:57:19.517Z,4.50
2022-10-04T21:59:47.242Z,3.60
2022-10-04T22:02:15.597Z,3.43
2022-10-04T22:04:42.537Z,3.77
2022-10-04T22:07:10.624Z,3.80
2022-10-04T22:09:37.677Z,3.70
2022-10-04T22:12:04.794Z,3.67
2022-10-04T22:14:31.786Z,3.70
2022-10-04T22:16:58.729Z,3.93
2022-10-04T22:19:27.008Z,3.63
2022-10-04T22:21:53.896Z,3.43
2022-10-04T22:24:21.165Z,3.70
2022-10-04T22:26:48.903Z,3.40
2022-10-04T22:29:18.027Z,3.70
2022-10-04T22:31:49.621Z,3.80
2022-10-04T22:34:19.306Z,4.00
2022-10-04T22:36:49.092Z,4.03
2022-10-04T22:39:18.075Z,4.07
2022-10-04T22:41:47.838Z,3.37
2022-10-04T22:44:16.387Z,3.70
2022-10-04T22:46:46.373Z,3.40
2022-10-04T22:49:16.984Z,4.00
2022-10-04T22:51:48.827Z,3.63
2022-10-04T22:54:18.373Z,3.87
2022-10-04T22:56:45.602Z,3.33
2022-10-04T22:59:14.437Z,3.53
